Terminal Aerodrome Forecast
Issued by NWS

Home | Current Version | Previous Version | Text Only | Print | Product List | Glossary On
Versions: 1 2 3 4 5 6 7 8 9 10 11 12 13 14
000
FTUS41 KCAR 042336
TAFFVE
TAF
KFVE 042336Z 0500/0524 24004KT P6SM BKN250
     FM050300 VRB03KT P6SM BKN250
     FM051600 30006KT P6SM BKN090
      TEMPO 0516/0520 -SHRA BKN050=

USA.gov is the U.S. government's official web portal to all federal, state and local government web resources and services.